Impacts METAR Board
IDs:

KCLT - Charlotte/Douglas In, NC, US

Updated at: 1500 UTC 23 May 2018
Potential Impact None Slight Moderate High
Time 23/03Z 23/04Z 23/05Z 23/06Z 23/07Z 23/08Z 23/09Z 23/10Z 23/11Z 23/12Z 23/13Z 23/14Z 23/15Z
Temp73 73 72 72 72 71 71 71 71 71 75 78 79
Dewpt68 67 68 69 69 69 69 69 69 69 70 69 69
Altim30.10 30.09 30.08 30.08 30.07 30.06 30.06 30.08 30.09 30.10 30.10 30.10 30.10
VIS10 10 10 10 10 10 10 10 10 10 10 10 10
CIG-- 250 250 20 16 16 8 8 9 9 250 -- --
CoverSCTBKNBKNOVCOVCOVCOVCOVCOVCOVCBKNSCTSCT
FltCatVFRVFRVFRMVFRMVFRMVFRIFRIFRIFRIFRVFRVFRVFR
WX--------------------------
WDir210190210230240230230260230230210240200
WSpd6 7 5 4 4 5 10 5 5 7 8 6 6
WGst-- -- -- -- -- -- -- -- -- -- -- -- --
Raw hourly METARs
KCLT 230252Z 21006KT 10SM SCT140 23/20 A3010 RMK AO2 SLP183 T02280200 51013
KCLT 230352Z 19007KT 10SM FEW040 SCT160 BKN250 23/19 A3009 RMK AO2 SLP181 T02280194
KCLT 230452Z 21005KT 10SM FEW016 SCT160 BKN250 22/20 A3008 RMK AO2 SLP178 T02220200 403000189
KCLT 230559Z 23004KT 10SM BKN020 OVC034 22/21 A3008 RMK AO2 T02220206
KCLT 230652Z 24004KT 10SM BKN016 BKN020 OVC024 22/21 A3007 RMK AO2 SLP171 T02220206
KCLT 230752Z 23005KT 10SM BKN016 BKN020 OVC024 22/21 A3006 RMK AO2 SLP168 T02170206
KCLT 230852Z 23010KT 10SM OVC008 22/21 A3006 RMK AO2 SLP171 T02170206 55007
KCLT 230952Z 26005KT 10SM OVC008 22/21 A3008 RMK AO2 SLP175 T02170206
KCLT 231052Z 23005KT 10SM BKN009 OVC016 22/21 A3009 RMK AO2 SLP181 T02170206
KCLT 231152Z 23007KT 10SM BKN009 OVC080 22/21 A3010 RMK AO2 SLP186 T02170206 10222 20211 53014
KCLT 231252Z 21008KT 10SM FEW008 SCT095 BKN250 24/21 A3010 RMK AO2 SLP185 T02390211
KCLT 231352Z 24006KT 10SM FEW010 SCT110 SCT250 26/21 A3010 RMK AO2 SLP185 T02560206
KCLT 231452Z 20006KT 10SM FEW020 FEW110 SCT250 26/21 A3010 RMK AO2 SLP184 TCU DSNT S T02610206 58001



Page loaded:  15:12 UTC  |   08:12 AM Pacific  |   09:12 AM Mountain  |   10:12 AM Central  |   11:12 AM Eastern

 

ADVISORIES

FORECASTS

FORECASTS

OBSERVATIONS

USER TOOLS

ABOUT US